Uxbridge, United Kingdom
Current Conditions -  °F | °C
As of 7:50 PM on Thursday 25 Dec 2014 (Local Time) from EGWU Reporting Station
Clear Clear  
Wind Chill:   Ceiling: Unl
Heat Index:   Visibility: 6mi
Dew Point:   Wind: 6mph
Humidity: 81%   Direction: 290°WNW
Pressure: 30.45"   Gusts: NA
Location:  51.54°N, 0.48°W
Report Text: EGWU 251950Z AUTO 29005KT 9999 // NCD 03/00 Q1031
Loading
Personal Weather Stations






























Interactive Weather Map New forecast layout! Learn more

10-Day Weather Forecast

Advertisements
Track Severe Weather on mobile